createdAt,value
2023-10-10T00:01:26.308Z,26.37
2023-10-10T00:02:59.456Z,22.97
2023-10-10T00:04:34.190Z,21.23
2023-10-10T00:06:10.158Z,24.97
2023-10-10T00:07:45.647Z,21.90
2023-10-10T00:09:18.946Z,20.43
2023-10-10T00:10:53.001Z,22.50
2023-10-10T00:12:30.267Z,22.03
2023-10-10T00:14:13.006Z,22.70
2023-10-10T00:15:52.526Z,22.60
2023-10-10T00:17:35.735Z,23.60
2023-10-10T00:19:28.016Z,21.93
2023-10-10T00:21:09.874Z,24.20
2023-10-10T00:22:44.247Z,24.70
2023-10-10T00:24:16.033Z,23.33
2023-10-10T00:25:47.861Z,25.47
2023-10-10T00:27:22.615Z,20.63
2023-10-10T00:28:58.592Z,22.00
2023-10-10T00:30:35.685Z,26.70
2023-10-10T00:32:13.914Z,22.80
2023-10-10T00:33:47.191Z,21.43
2023-10-10T00:35:19.295Z,25.03
2023-10-10T00:36:59.636Z,24.47
2023-10-10T00:38:31.563Z,23.73
2023-10-10T00:40:09.039Z,24.03
2023-10-10T00:41:55.445Z,21.50
2023-10-10T00:43:27.240Z,22.50
2023-10-10T00:44:58.936Z,24.37
2023-10-10T00:46:30.829Z,19.37
2023-10-10T00:48:03.520Z,23.10
2023-10-10T00:49:35.794Z,19.63
2023-10-10T00:51:11.680Z,22.13
2023-10-10T00:52:45.837Z,27.87
2023-10-10T00:54:22.801Z,22.80
2023-10-10T00:55:57.955Z,20.33
2023-10-10T00:57:36.672Z,22.43
2023-10-10T00:59:08.427Z,22.77
2023-10-10T01:00:45.880Z,23.53
2023-10-10T01:02:18.362Z,19.83
2023-10-10T01:03:51.319Z,20.63
2023-10-10T01:05:24.892Z,23.03
2023-10-10T01:06:56.727Z,26.53
2023-10-10T01:08:31.874Z,21.67
2023-10-10T01:10:13.713Z,20.23
2023-10-10T01:11:49.506Z,19.00
2023-10-10T01:13:21.225Z,23.37
2023-10-10T01:14:58.265Z,20.90
2023-10-10T01:16:30.210Z,19.57
2023-10-10T01:18:02.561Z,20.57
2023-10-10T01:19:36.017Z,23.43
2023-10-10T01:21:10.085Z,25.20
2023-10-10T01:22:47.508Z,19.00
2023-10-10T01:24:22.816Z,22.37
2023-10-10T01:25:56.969Z,21.53
2023-10-10T01:27:32.156Z,21.27
2023-10-10T01:29:15.937Z,22.77
2023-10-10T01:30:58.850Z,20.43
2023-10-10T01:32:33.036Z,24.63
2023-10-10T01:34:09.752Z,24.63
2023-10-10T01:35:43.172Z,26.03
2023-10-10T01:37:23.964Z,24.10
2023-10-10T01:39:00.921Z,25.10
2023-10-10T01:40:38.624Z,26.00
2023-10-10T01:42:12.750Z,25.20
2023-10-10T01:43:47.347Z,21.97
2023-10-10T01:45:20.708Z,23.13
2023-10-10T01:46:53.452Z,24.57
2023-10-10T01:48:25.441Z,21.53
2023-10-10T01:49:59.591Z,21.13
2023-10-10T01:51:34.485Z,21.10
2023-10-10T01:53:08.684Z,24.80
2023-10-10T01:54:46.992Z,18.13
2023-10-10T01:56:18.890Z,20.17
2023-10-10T01:57:50.906Z,26.80
2023-10-10T01:59:26.978Z,23.10
2023-10-10T02:00:59.469Z,24.20
2023-10-10T02:02:31.605Z,21.37
2023-10-10T02:04:07.387Z,22.93
2023-10-10T02:05:39.149Z,21.93
2023-10-10T02:07:32.190Z,19.50
2023-10-10T02:09:14.003Z,21.70
2023-10-10T02:10:50.939Z,17.73
2023-10-10T02:12:23.423Z,20.57
2023-10-10T02:13:55.205Z,21.00
2023-10-10T02:15:28.413Z,20.97
2023-10-10T02:17:08.009Z,20.20
2023-10-10T02:18:52.057Z,20.97
2023-10-10T02:20:26.612Z,20.67
2023-10-10T02:22:13.959Z,22.10
2023-10-10T02:23:46.929Z,20.00
2023-10-10T02:25:28.027Z,19.23
2023-10-10T02:27:06.050Z,18.30
2023-10-10T02:28:50.777Z,18.87
2023-10-10T02:30:36.198Z,18.80
2023-10-10T02:32:13.595Z,20.70
2023-10-10T02:33:49.938Z,20.53
2023-10-10T02:35:28.672Z,20.10
2023-10-10T02:37:14.622Z,20.97
2023-10-10T02:38:55.982Z,19.30
2023-10-10T02:40:32.153Z,20.20
2023-10-10T02:42:14.494Z,19.53
2023-10-10T02:44:04.683Z,19.73
2023-10-10T02:45:37.098Z,17.07
2023-10-10T02:47:10.165Z,23.43
2023-10-10T02:48:43.305Z,20.40
2023-10-10T02:50:16.795Z,25.43
2023-10-10T02:51:49.572Z,19.83
2023-10-10T02:53:21.919Z,22.83
2023-10-10T02:54:56.525Z,19.67
2023-10-10T02:56:31.060Z,18.00
2023-10-10T02:58:02.969Z,17.33
2023-10-10T02:59:39.483Z,18.13
2023-10-10T03:01:20.783Z,17.20
2023-10-10T03:02:56.250Z,19.83
2023-10-10T03:04:52.670Z,20.10
2023-10-10T03:06:29.742Z,19.87
2023-10-10T03:08:13.233Z,18.77
2023-10-10T03:10:03.974Z,20.67
2023-10-10T03:11:53.923Z,21.37
2023-10-10T03:13:38.476Z,23.20
2023-10-10T03:15:22.618Z,21.30
2023-10-10T03:17:06.732Z,19.93
2023-10-10T03:18:44.643Z,20.30
2023-10-10T03:20:25.617Z,18.00
2023-10-10T03:22:17.369Z,19.87
2023-10-10T03:23:56.979Z,19.27
2023-10-10T03:25:39.437Z,23.83
2023-10-10T03:27:17.244Z,18.07
2023-10-10T03:28:50.457Z,18.93
2023-10-10T03:30:51.215Z,21.40
2023-10-10T03:32:33.254Z,18.13
2023-10-10T03:34:31.921Z,15.43
2023-10-10T03:36:28.284Z,18.23
2023-10-10T03:38:25.585Z,15.60
2023-10-10T03:40:22.821Z,17.47
2023-10-10T03:42:13.080Z,21.27
2023-10-10T03:44:03.532Z,19.27
2023-10-10T03:45:54.006Z,22.03
2023-10-10T03:47:44.904Z,19.60
2023-10-10T03:49:35.861Z,19.20
2023-10-10T03:51:29.170Z,19.67
2023-10-10T03:53:19.665Z,17.50
2023-10-10T03:55:10.086Z,17.63
2023-10-10T03:57:00.264Z,19.80
2023-10-10T03:58:50.709Z,17.77
2023-10-10T04:00:41.304Z,22.43
2023-10-10T04:02:31.713Z,19.00
2023-10-10T04:04:22.194Z,20.70
2023-10-10T04:06:12.734Z,19.57
2023-10-10T04:08:03.251Z,18.60
2023-10-10T04:09:53.348Z,18.57
2023-10-10T04:11:45.611Z,21.77
2023-10-10T04:13:36.070Z,18.90
2023-10-10T04:15:26.419Z,18.83
2023-10-10T04:17:17.115Z,19.80
2023-10-10T04:19:07.612Z,22.50
2023-10-10T04:20:58.231Z,17.83
2023-10-10T04:22:48.643Z,19.97
2023-10-10T04:24:39.172Z,16.27
2023-10-10T04:26:29.688Z,18.10
2023-10-10T04:28:20.116Z,19.93
2023-10-10T04:30:14.678Z,23.80
2023-10-10T04:32:05.087Z,19.17
2023-10-10T04:33:55.454Z,18.50
2023-10-10T04:35:48.095Z,18.63
2023-10-10T04:37:38.416Z,17.10
2023-10-10T04:39:28.473Z,17.53
2023-10-10T04:41:18.814Z,19.70
2023-10-10T04:43:09.193Z,19.70
2023-10-10T04:44:59.629Z,16.43
2023-10-10T04:46:50.085Z,19.30
2023-10-10T04:48:40.045Z,19.80
2023-10-10T04:50:30.389Z,16.27
2023-10-10T04:52:20.878Z,15.80
2023-10-10T04:54:11.271Z,14.40
2023-10-10T04:56:01.768Z,17.30
2023-10-10T04:57:52.327Z,16.40
2023-10-10T04:59:42.890Z,18.63
2023-10-10T05:01:33.537Z,14.80
2023-10-10T05:03:24.386Z,16.83
2023-10-10T05:05:14.714Z,17.50
2023-10-10T05:07:05.063Z,16.33
2023-10-10T05:08:55.581Z,17.83
2023-10-10T05:10:45.996Z,14.90
2023-10-10T05:12:36.469Z,16.37
2023-10-10T05:14:27.020Z,17.23
2023-10-10T05:16:23.526Z,17.67
2023-10-10T05:18:14.188Z,15.73
2023-10-10T05:20:04.821Z,17.37
2023-10-10T05:21:55.513Z,17.70
2023-10-10T05:23:36.734Z,14.90
2023-10-10T05:25:14.100Z,15.53
2023-10-10T05:26:48.727Z,17.50
2023-10-10T05:28:24.962Z,13.23
2023-10-10T05:29:57.093Z,13.30
2023-10-10T05:31:32.185Z,16.63
2023-10-10T05:33:05.160Z,16.63
2023-10-10T05:34:38.240Z,14.83
2023-10-10T05:36:10.225Z,17.20
2023-10-10T05:37:42.017Z,14.07
2023-10-10T05:39:18.823Z,16.93
2023-10-10T05:40:52.338Z,15.80
2023-10-10T05:42:27.651Z,13.53
2023-10-10T05:44:00.469Z,15.17
2023-10-10T05:45:32.337Z,17.30
2023-10-10T05:47:04.288Z,17.00
2023-10-10T05:48:36.941Z,15.30
2023-10-10T05:50:11.358Z,13.73
2023-10-10T05:51:43.302Z,13.50
2023-10-10T05:53:17.078Z,12.63
2023-10-10T05:54:48.798Z,12.47
2023-10-10T05:56:20.610Z,15.40
2023-10-10T05:57:53.092Z,13.50
2023-10-10T05:59:25.059Z,17.03
2023-10-10T06:00:56.937Z,17.40
2023-10-10T06:02:28.835Z,15.87
2023-10-10T06:04:00.817Z,15.07
2023-10-10T06:05:34.291Z,11.60
2023-10-10T06:07:06.177Z,15.77
2023-10-10T06:08:38.062Z,15.83
2023-10-10T06:10:20.111Z,18.70
2023-10-10T06:11:51.896Z,13.87
2023-10-10T06:13:27.549Z,16.20
2023-10-10T06:14:59.755Z,17.33
2023-10-10T06:16:32.079Z,14.30
2023-10-10T06:18:19.513Z,12.07
2023-10-10T06:19:51.586Z,12.63
2023-10-10T06:21:23.441Z,17.70
2023-10-10T06:22:56.463Z,12.20
2023-10-10T06:24:28.223Z,14.30
2023-10-10T06:26:00.182Z,13.43
2023-10-10T06:27:37.622Z,11.40
2023-10-10T06:29:09.355Z,11.10
2023-10-10T06:30:44.849Z,11.57
2023-10-10T06:32:17.276Z,12.93
2023-10-10T06:33:52.637Z,15.37
2023-10-10T06:35:26.758Z,13.97
2023-10-10T06:36:58.512Z,13.87
2023-10-10T06:38:30.259Z,13.00
2023-10-10T06:40:08.586Z,13.80
2023-10-10T06:41:41.732Z,11.07
2023-10-10T06:43:16.373Z,12.27
2023-10-10T06:44:49.585Z,14.20
2023-10-10T06:46:24.783Z,9.40
2023-10-10T06:47:56.620Z,12.43
2023-10-10T06:49:44.452Z,12.67
2023-10-10T06:51:16.819Z,15.63
2023-10-10T06:52:53.385Z,9.30
2023-10-10T06:54:28.962Z,11.97
2023-10-10T06:56:19.173Z,13.27
2023-10-10T06:58:01.108Z,10.13
2023-10-10T06:59:33.814Z,11.03
2023-10-10T07:01:05.990Z,11.97
2023-10-10T07:02:41.731Z,13.17
2023-10-10T07:04:14.794Z,11.10
2023-10-10T07:05:47.482Z,12.03
2023-10-10T07:07:23.032Z,11.70
2023-10-10T07:09:18.369Z,12.93
2023-10-10T07:10:50.089Z,12.70
2023-10-10T07:12:21.797Z,13.13
2023-10-10T07:13:59.659Z,11.00
2023-10-10T07:15:35.836Z,12.30
2023-10-10T07:17:13.215Z,17.37
2023-10-10T07:18:45.226Z,16.50
2023-10-10T07:20:37.454Z,10.30
2023-10-10T07:22:13.514Z,13.30
2023-10-10T07:24:03.789Z,18.57
2023-10-10T07:25:44.891Z,11.23
2023-10-10T07:27:19.796Z,12.50
2023-10-10T07:28:54.971Z,11.97
2023-10-10T07:30:34.967Z,11.53
2023-10-10T07:32:19.064Z,12.00
2023-10-10T07:34:05.086Z,13.77
2023-10-10T07:35:37.905Z,10.30
2023-10-10T07:37:10.188Z,11.67
2023-10-10T07:38:42.033Z,15.57
2023-10-10T07:40:18.312Z,12.53
2023-10-10T07:41:53.714Z,10.37
2023-10-10T07:43:28.409Z,13.03
2023-10-10T07:45:04.357Z,13.60
2023-10-10T07:46:38.862Z,12.77
2023-10-10T07:48:11.591Z,12.10
2023-10-10T07:49:52.093Z,10.60
2023-10-10T07:51:36.004Z,10.67
2023-10-10T07:53:07.950Z,11.90
2023-10-10T07:54:40.629Z,13.70
2023-10-10T07:56:12.748Z,7.70
2023-10-10T07:57:56.967Z,10.50
2023-10-10T07:59:28.801Z,9.07
2023-10-10T08:01:09.487Z,12.97
2023-10-10T08:02:41.310Z,7.67
2023-10-10T08:04:15.727Z,9.73
2023-10-10T08:05:52.154Z,13.40
2023-10-10T08:07:24.896Z,9.87
2023-10-10T08:09:19.230Z,8.50
2023-10-10T08:10:51.154Z,10.60
2023-10-10T08:12:30.672Z,8.00
2023-10-10T08:14:08.046Z,11.80
2023-10-10T08:15:53.990Z,6.00
2023-10-10T08:17:27.227Z,13.13
2023-10-10T08:19:05.818Z,9.17
2023-10-10T08:20:57.572Z,6.00
2023-10-10T08:22:29.370Z,8.47
2023-10-10T08:24:01.067Z,6.63
2023-10-10T08:25:34.213Z,5.93
2023-10-10T08:27:11.184Z,8.20
2023-10-10T08:28:43.115Z,6.30
2023-10-10T08:30:15.061Z,7.17
2023-10-10T08:31:46.818Z,8.30
2023-10-10T08:33:18.640Z,7.67
2023-10-10T08:34:50.553Z,6.70
2023-10-10T08:36:25.926Z,6.73
2023-10-10T08:37:58.266Z,5.87
2023-10-10T08:39:36.338Z,9.57
2023-10-10T08:41:10.089Z,7.33
2023-10-10T08:42:44.540Z,6.13
2023-10-10T08:44:20.461Z,6.27
2023-10-10T08:45:55.857Z,6.70
2023-10-10T08:47:33.580Z,9.60
2023-10-10T08:49:06.084Z,8.30
2023-10-10T08:50:39.984Z,5.47
2023-10-10T08:52:11.736Z,7.10
2023-10-10T08:53:43.802Z,7.60
2023-10-10T08:55:18.969Z,7.63
2023-10-10T08:57:11.167Z,6.73
2023-10-10T08:58:43.255Z,7.10
2023-10-10T09:00:18.906Z,7.73
2023-10-10T09:01:50.805Z,6.03
2023-10-10T09:03:22.705Z,7.00
2023-10-10T09:04:55.020Z,7.50
2023-10-10T09:06:44.407Z,5.70
2023-10-10T09:08:17.029Z,7.27
2023-10-10T09:10:05.647Z,6.27
2023-10-10T09:11:39.137Z,6.60
2023-10-10T09:13:13.659Z,6.60
2023-10-10T09:14:52.772Z,7.53
2023-10-10T09:16:45.577Z,8.50
2023-10-10T09:18:23.232Z,7.63
2023-10-10T09:19:58.753Z,9.87
2023-10-10T09:21:31.986Z,7.13
2023-10-10T09:23:19.907Z,6.97
2023-10-10T09:24:51.776Z,6.90
2023-10-10T09:26:28.718Z,6.20
2023-10-10T09:28:11.922Z,6.80
2023-10-10T09:29:48.433Z,5.70
2023-10-10T09:31:33.163Z,5.60
2023-10-10T09:33:24.375Z,5.37
2023-10-10T09:34:59.130Z,5.60
2023-10-10T09:36:39.024Z,6.00
2023-10-10T09:38:15.888Z,7.50
2023-10-10T09:39:56.400Z,6.50
2023-10-10T09:41:37.950Z,7.40
2023-10-10T09:43:25.167Z,5.30
2023-10-10T09:45:03.229Z,5.40
2023-10-10T09:46:59.082Z,5.30
2023-10-10T09:48:39.887Z,6.50
2023-10-10T09:50:21.779Z,8.53
2023-10-10T09:52:12.679Z,6.80
2023-10-10T09:53:48.024Z,7.40
2023-10-10T09:55:26.795Z,6.80
2023-10-10T09:57:09.396Z,5.57
2023-10-10T09:58:45.800Z,7.30
2023-10-10T10:00:31.555Z,6.60
2023-10-10T10:02:06.998Z,6.73
2023-10-10T10:03:50.767Z,5.43
2023-10-10T10:05:29.601Z,5.60
2023-10-10T10:07:17.996Z,5.00
2023-10-10T10:09:18.510Z,7.30
2023-10-10T10:11:12.956Z,7.00
2023-10-10T10:13:14.780Z,9.20
2023-10-10T10:15:39.343Z,6.33
2023-10-10T10:17:24.323Z,4.27
2023-10-10T10:19:13.676Z,6.17
2023-10-10T10:20:48.339Z,6.00
2023-10-10T10:22:22.827Z,7.80
2023-10-10T10:24:16.408Z,8.27
2023-10-10T10:25:54.466Z,5.10
2023-10-10T10:27:35.725Z,5.50
2023-10-10T10:29:17.057Z,7.47
2023-10-10T10:30:52.610Z,4.97
2023-10-10T10:32:25.343Z,8.10
2023-10-10T10:34:24.304Z,9.77
2023-10-10T10:35:59.234Z,6.00
2023-10-10T10:37:32.003Z,6.53
2023-10-10T10:39:35.596Z,6.03
2023-10-10T10:41:18.887Z,7.60
2023-10-10T10:42:52.191Z,9.40
2023-10-10T10:44:45.364Z,6.93
2023-10-10T10:46:28.729Z,5.67
2023-10-10T10:48:06.382Z,7.13
2023-10-10T10:49:41.382Z,6.07
2023-10-10T10:51:27.954Z,7.57
2023-10-10T10:53:08.520Z,5.77
2023-10-10T10:54:44.512Z,7.37
2023-10-10T10:56:19.437Z,7.63
2023-10-10T10:58:07.039Z,6.90
2023-10-10T10:59:56.311Z,7.43
2023-10-10T11:01:29.231Z,8.43
2023-10-10T11:03:04.557Z,5.77
2023-10-10T11:04:36.534Z,7.20
2023-10-10T11:06:10.410Z,6.57
2023-10-10T11:07:48.706Z,6.10
2023-10-10T11:09:28.776Z,6.93
2023-10-10T11:11:20.609Z,6.90
2023-10-10T11:12:52.564Z,6.83
2023-10-10T11:14:24.954Z,6.60
2023-10-10T11:16:11.769Z,5.27
2023-10-10T11:17:52.666Z,5.40
2023-10-10T11:19:33.513Z,8.07
2023-10-10T11:21:09.595Z,5.77
2023-10-10T11:22:41.584Z,6.10
2023-10-10T11:24:15.101Z,5.80
2023-10-10T11:25:59.915Z,7.40
2023-10-10T11:27:44.996Z,6.60
2023-10-10T11:29:28.962Z,4.97
2023-10-10T11:31:08.327Z,7.30
2023-10-10T11:32:52.851Z,7.87
2023-10-10T11:34:34.923Z,8.20
2023-10-10T11:36:47.402Z,4.50
2023-10-10T11:38:36.002Z,8.37
2023-10-10T11:40:20.857Z,6.17
2023-10-10T11:41:52.881Z,6.13
2023-10-10T11:43:29.052Z,6.43
2023-10-10T11:45:04.492Z,6.60
2023-10-10T11:46:39.671Z,5.63
2023-10-10T11:48:14.089Z,8.23
2023-10-10T11:50:06.508Z,7.43
2023-10-10T11:51:39.176Z,6.73
2023-10-10T11:53:20.755Z,5.33
2023-10-10T11:54:56.038Z,5.90
2023-10-10T11:56:27.849Z,5.53
2023-10-10T11:58:17.840Z,5.53
2023-10-10T11:59:50.386Z,6.83
2023-10-10T12:01:43.628Z,10.90
2023-10-10T12:03:33.802Z,8.70
2023-10-10T12:05:16.211Z,6.33
2023-10-10T12:06:48.659Z,5.80
2023-10-10T12:08:24.287Z,7.63
2023-10-10T12:10:08.512Z,5.10
2023-10-10T12:11:40.353Z,7.83
2023-10-10T12:13:20.545Z,7.47
2023-10-10T12:14:52.615Z,6.37
2023-10-10T12:16:26.005Z,8.83
2023-10-10T12:17:59.171Z,11.40
2023-10-10T12:19:44.895Z,9.10
2023-10-10T12:21:24.329Z,6.90
2023-10-10T12:22:56.531Z,8.30
2023-10-10T12:24:29.454Z,8.27
2023-10-10T12:26:01.233Z,7.40
2023-10-10T12:27:33.105Z,8.70
2023-10-10T12:29:04.892Z,6.10
2023-10-10T12:30:42.863Z,11.07
2023-10-10T12:32:19.797Z,9.00
2023-10-10T12:33:54.708Z,9.10
2023-10-10T12:35:27.749Z,8.37
2023-10-10T12:37:00.740Z,6.47
2023-10-10T12:38:34.117Z,8.93
2023-10-10T12:40:10.401Z,8.60
2023-10-10T12:41:47.452Z,6.20
2023-10-10T12:43:20.797Z,6.97
2023-10-10T12:44:52.706Z,7.10
2023-10-10T12:46:24.846Z,8.83
2023-10-10T12:48:00.220Z,6.23
2023-10-10T12:49:37.286Z,6.57
2023-10-10T12:51:13.996Z,11.73
2023-10-10T12:52:58.512Z,4.63
2023-10-10T12:54:36.106Z,5.97
2023-10-10T12:56:12.464Z,8.60
2023-10-10T12:57:46.059Z,6.67
2023-10-10T12:59:26.990Z,7.63
2023-10-10T13:01:00.437Z,7.07
2023-10-10T13:02:32.436Z,6.20
2023-10-10T13:04:09.262Z,4.90
2023-10-10T13:05:48.404Z,6.30
2023-10-10T13:07:20.210Z,7.47
2023-10-10T13:08:54.897Z,7.10
2023-10-10T13:10:34.380Z,6.90
2023-10-10T13:12:06.302Z,5.73
2023-10-10T13:13:46.418Z,6.80
2023-10-10T13:15:30.843Z,5.77
2023-10-10T13:17:22.333Z,7.00
2023-10-10T13:18:56.166Z,6.93
2023-10-10T13:20:28.357Z,9.57
2023-10-10T13:22:00.230Z,5.20
2023-10-10T13:23:32.096Z,5.43
2023-10-10T13:25:10.427Z,6.80
2023-10-10T13:26:46.467Z,9.17
2023-10-10T13:28:18.869Z,8.10
2023-10-10T13:29:50.743Z,5.57
2023-10-10T13:31:25.445Z,4.53
2023-10-10T13:32:57.774Z,6.10
2023-10-10T13:34:29.641Z,6.80
2023-10-10T13:36:01.380Z,7.07
2023-10-10T13:37:33.235Z,5.23
2023-10-10T13:39:09.705Z,5.93
2023-10-10T13:40:50.634Z,5.30
2023-10-10T13:42:22.466Z,8.43
2023-10-10T13:43:54.462Z,5.30
2023-10-10T13:45:29.259Z,5.30
2023-10-10T13:47:01.600Z,5.47
2023-10-10T13:48:37.632Z,9.23
2023-10-10T13:50:28.297Z,11.50
2023-10-10T13:52:01.021Z,7.03
2023-10-10T13:53:33.278Z,5.57
2023-10-10T13:55:06.059Z,15.33
2023-10-10T13:56:38.110Z,5.43
2023-10-10T13:58:14.350Z,5.30
2023-10-10T13:59:50.198Z,7.70
2023-10-10T14:01:41.557Z,5.40
2023-10-10T14:03:15.828Z,8.03
2023-10-10T14:04:49.871Z,11.00
2023-10-10T14:06:28.114Z,7.63
2023-10-10T14:08:00.637Z,9.87
2023-10-10T14:09:32.773Z,6.77
2023-10-10T14:11:05.245Z,13.80
2023-10-10T14:12:37.053Z,8.33
2023-10-10T14:14:08.804Z,7.97
2023-10-10T14:15:44.692Z,7.60
2023-10-10T14:17:16.511Z,8.93
2023-10-10T14:18:51.595Z,8.70
2023-10-10T14:20:24.432Z,7.20
2023-10-10T14:21:56.324Z,13.03
2023-10-10T14:23:29.184Z,10.40
2023-10-10T14:25:00.972Z,9.87
2023-10-10T14:26:35.164Z,9.30
2023-10-10T14:28:07.241Z,7.73
2023-10-10T14:29:43.172Z,9.93
2023-10-10T14:31:15.243Z,8.40
2023-10-10T14:32:47.188Z,5.13
2023-10-10T14:34:25.553Z,6.33
2023-10-10T14:35:57.512Z,6.50
2023-10-10T14:37:45.331Z,12.37
2023-10-10T14:39:32.711Z,7.00
2023-10-10T14:41:04.441Z,7.13
2023-10-10T14:42:36.160Z,7.70
2023-10-10T14:44:13.667Z,7.40
2023-10-10T14:45:49.776Z,9.47
2023-10-10T14:47:22.135Z,9.80
2023-10-10T14:49:07.507Z,13.37
2023-10-10T14:50:46.590Z,6.37
2023-10-10T14:52:20.530Z,5.73
2023-10-10T14:53:53.222Z,10.43
2023-10-10T14:55:25.359Z,8.77
2023-10-10T14:56:58.077Z,7.27
2023-10-10T14:58:30.535Z,9.30
2023-10-10T15:00:02.418Z,5.43
2023-10-10T15:01:35.601Z,8.00
2023-10-10T15:03:13.808Z,7.00
2023-10-10T15:04:46.458Z,11.53
2023-10-10T15:06:22.436Z,5.83
2023-10-10T15:07:55.508Z,8.03
2023-10-10T15:09:27.926Z,6.80
2023-10-10T15:10:59.741Z,7.00
2023-10-10T15:12:31.522Z,11.80
2023-10-10T15:14:07.633Z,6.07
2023-10-10T15:15:46.454Z,7.93
2023-10-10T15:17:18.157Z,13.10
2023-10-10T15:18:53.311Z,7.50
2023-10-10T15:20:27.960Z,6.30
2023-10-10T15:22:00.235Z,6.10
2023-10-10T15:23:32.034Z,10.40
2023-10-10T15:25:05.646Z,7.67
2023-10-10T15:26:37.478Z,6.50
2023-10-10T15:28:09.346Z,7.73
2023-10-10T15:29:43.574Z,6.47
2023-10-10T15:31:16.851Z,7.33
2023-10-10T15:32:49.123Z,9.47
2023-10-10T15:34:21.271Z,8.33
2023-10-10T15:35:56.170Z,11.73
2023-10-10T15:37:30.757Z,7.10
2023-10-10T15:39:05.611Z,6.57
2023-10-10T15:40:40.821Z,6.23
2023-10-10T15:42:12.657Z,5.90
2023-10-10T15:43:48.480Z,5.80
2023-10-10T15:45:23.155Z,6.07
2023-10-10T15:46:59.590Z,9.50
2023-10-10T15:48:31.405Z,6.10
2023-10-10T15:50:03.719Z,7.17
2023-10-10T15:51:39.043Z,6.33
2023-10-10T15:53:10.866Z,6.60
2023-10-10T15:54:42.646Z,12.20
2023-10-10T15:56:18.480Z,7.90
2023-10-10T15:57:54.329Z,8.77
2023-10-10T15:59:26.220Z,4.87
2023-10-10T16:00:58.981Z,5.20
2023-10-10T16:02:32.041Z,9.23
2023-10-10T16:04:13.554Z,8.83
2023-10-10T16:05:46.535Z,4.97
2023-10-10T16:07:18.533Z,11.20
2023-10-10T16:08:52.354Z,4.40
2023-10-10T16:10:24.375Z,9.77
2023-10-10T16:11:56.867Z,11.33
2023-10-10T16:13:28.706Z,5.77
2023-10-10T16:15:01.342Z,6.27
2023-10-10T16:16:33.260Z,5.83
2023-10-10T16:18:05.460Z,7.70
2023-10-10T16:19:40.043Z,8.60
2023-10-10T16:21:11.906Z,5.77
2023-10-10T16:22:46.690Z,10.20
2023-10-10T16:24:19.438Z,5.97
2023-10-10T16:25:51.768Z,6.90
2023-10-10T16:27:23.812Z,9.80
2023-10-10T16:28:57.352Z,8.50
2023-10-10T16:30:29.116Z,9.23
2023-10-10T16:32:01.863Z,6.40
2023-10-10T16:33:35.900Z,7.10
2023-10-10T16:35:12.135Z,5.50
2023-10-10T16:36:46.802Z,5.33
2023-10-10T16:38:23.438Z,8.27
2023-10-10T16:39:55.442Z,6.23
2023-10-10T16:41:27.209Z,5.60
2023-10-10T16:42:59.075Z,6.13
2023-10-10T16:44:30.987Z,8.67
2023-10-10T16:46:03.009Z,16.13
2023-10-10T16:47:37.895Z,7.70
2023-10-10T16:49:09.923Z,7.40
2023-10-10T16:50:43.026Z,6.93
2023-10-10T16:52:14.786Z,8.90
2023-10-10T16:53:46.686Z,13.93
2023-10-10T16:55:18.867Z,12.17
2023-10-10T16:56:50.954Z,7.87
2023-10-10T16:58:23.847Z,6.30
2023-10-10T16:59:57.123Z,14.63
2023-10-10T17:01:29.670Z,10.10
2023-10-10T17:03:01.495Z,6.87
2023-10-10T17:04:34.592Z,9.97
2023-10-10T17:06:07.141Z,11.37
2023-10-10T17:07:42.074Z,6.63
2023-10-10T17:09:14.550Z,8.27
2023-10-10T17:10:47.212Z,8.90
2023-10-10T17:12:19.016Z,8.60
2023-10-10T17:13:51.794Z,7.90
2023-10-10T17:15:23.640Z,8.40
2023-10-10T17:16:55.351Z,9.40
2023-10-10T17:18:27.177Z,10.63
2023-10-10T17:20:00.913Z,17.27
2023-10-10T17:21:33.654Z,12.03
2023-10-10T17:23:05.428Z,9.77
2023-10-10T17:24:37.156Z,8.47
2023-10-10T17:26:12.711Z,6.80
2023-10-10T17:27:53.014Z,9.43
2023-10-10T17:29:25.074Z,7.93
2023-10-10T17:30:57.811Z,8.63
2023-10-10T17:32:29.637Z,7.20
2023-10-10T17:34:02.615Z,8.03
2023-10-10T17:35:34.478Z,9.27
2023-10-10T17:37:09.962Z,7.33
2023-10-10T17:38:42.001Z,7.50
2023-10-10T17:40:14.475Z,7.03
2023-10-10T17:41:49.035Z,8.53
2023-10-10T17:43:22.443Z,7.90
2023-10-10T17:44:54.514Z,8.33
2023-10-10T17:46:31.022Z,8.80
2023-10-10T17:48:06.397Z,6.83
2023-10-10T17:49:38.706Z,11.57
2023-10-10T17:51:16.480Z,8.50
2023-10-10T17:52:49.963Z,5.70
2023-10-10T17:54:22.947Z,7.87
2023-10-10T17:55:54.722Z,8.00
2023-10-10T17:57:26.606Z,6.23
2023-10-10T17:58:58.708Z,6.37
2023-10-10T18:00:33.117Z,10.73
2023-10-10T18:02:09.692Z,12.50
2023-10-10T18:03:42.799Z,5.57
2023-10-10T18:05:17.683Z,9.20
2023-10-10T18:06:50.076Z,7.80
2023-10-10T18:08:22.074Z,17.90
2023-10-10T18:09:56.589Z,7.23
2023-10-10T18:11:33.033Z,9.60
2023-10-10T18:13:09.490Z,6.77
2023-10-10T18:14:41.644Z,6.97
2023-10-10T18:16:14.791Z,8.90
2023-10-10T18:17:50.496Z,11.00
2023-10-10T18:19:22.495Z,7.73
2023-10-10T18:20:55.182Z,8.97
2023-10-10T18:22:28.324Z,7.37
2023-10-10T18:24:07.099Z,12.10
2023-10-10T18:25:40.263Z,9.13
2023-10-10T18:27:12.420Z,9.07
2023-10-10T18:28:44.618Z,9.60
2023-10-10T18:30:24.339Z,13.07
2023-10-10T18:31:59.085Z,11.87
2023-10-10T18:33:30.949Z,9.40
2023-10-10T18:35:02.867Z,7.83
2023-10-10T18:36:37.554Z,8.77
2023-10-10T18:38:09.736Z,12.07
2023-10-10T18:39:41.618Z,10.00
2023-10-10T18:41:13.880Z,7.07
2023-10-10T18:42:50.589Z,9.70
2023-10-10T18:44:22.314Z,8.33
2023-10-10T18:45:54.517Z,15.30
2023-10-10T18:47:26.387Z,6.97
2023-10-10T18:48:58.428Z,6.60
2023-10-10T18:50:34.590Z,6.13
2023-10-10T18:52:07.559Z,10.60
2023-10-10T18:53:42.883Z,8.67
2023-10-10T18:55:15.215Z,6.50
2023-10-10T18:56:47.028Z,12.00
2023-10-10T18:58:18.830Z,5.17
2023-10-10T18:59:50.713Z,6.77
2023-10-10T19:01:23.187Z,11.90
2023-10-10T19:03:00.093Z,7.17
2023-10-10T19:04:32.067Z,7.23
2023-10-10T19:06:07.110Z,7.50
2023-10-10T19:07:39.791Z,4.53
2023-10-10T19:09:16.119Z,7.13
2023-10-10T19:10:51.784Z,9.80
2023-10-10T19:12:23.815Z,9.17
2023-10-10T19:13:56.761Z,5.30
2023-10-10T19:15:28.618Z,7.87
2023-10-10T19:17:01.420Z,7.20
2023-10-10T19:18:38.558Z,12.40
2023-10-10T19:20:24.626Z,7.70
2023-10-10T19:21:56.412Z,9.37
2023-10-10T19:23:30.286Z,11.43
2023-10-10T19:25:02.115Z,8.03
2023-10-10T19:26:35.074Z,5.73
2023-10-10T19:28:08.323Z,9.80
2023-10-10T19:29:40.399Z,9.93
2023-10-10T19:31:15.315Z,9.40
2023-10-10T19:32:49.690Z,12.17
2023-10-10T19:34:21.696Z,8.17
2023-10-10T19:35:53.557Z,5.37
2023-10-10T19:37:26.641Z,9.70
2023-10-10T19:38:58.453Z,9.23
2023-10-10T19:40:30.192Z,6.03
2023-10-10T19:42:04.803Z,7.23
2023-10-10T19:43:39.802Z,6.47
2023-10-10T19:45:24.610Z,8.77
2023-10-10T19:46:57.941Z,8.07
2023-10-10T19:48:29.956Z,7.33
2023-10-10T19:50:04.765Z,6.03
2023-10-10T19:51:42.175Z,15.93
2023-10-10T19:53:15.464Z,8.57
2023-10-10T19:54:47.248Z,6.37
2023-10-10T19:56:19.318Z,6.33
2023-10-10T19:57:51.222Z,5.10
2023-10-10T19:59:23.280Z,9.83
2023-10-10T20:00:55.131Z,7.10
2023-10-10T20:02:27.065Z,7.23
2023-10-10T20:03:59.122Z,6.37
2023-10-10T20:05:30.932Z,6.90
2023-10-10T20:07:03.031Z,6.77
2023-10-10T20:08:35.840Z,9.97
2023-10-10T20:10:17.181Z,8.40
2023-10-10T20:11:49.728Z,10.47
2023-10-10T20:13:22.061Z,7.67
2023-10-10T20:14:53.839Z,5.57
2023-10-10T20:16:27.543Z,9.10
2023-10-10T20:17:59.799Z,7.43
2023-10-10T20:19:31.550Z,8.00
2023-10-10T20:21:07.734Z,5.00
2023-10-10T20:22:39.545Z,8.10
2023-10-10T20:24:11.622Z,8.00
2023-10-10T20:25:43.742Z,7.00
2023-10-10T20:27:17.573Z,8.20
2023-10-10T20:28:49.723Z,11.43
2023-10-10T20:30:23.141Z,7.60
2023-10-10T20:31:55.709Z,10.93
2023-10-10T20:33:27.586Z,6.03
2023-10-10T20:34:59.474Z,5.47
2023-10-10T20:36:31.229Z,6.73
2023-10-10T20:38:06.763Z,10.43
2023-10-10T20:39:42.245Z,7.43
2023-10-10T20:41:15.098Z,7.00
2023-10-10T20:42:48.590Z,7.57
2023-10-10T20:44:20.522Z,9.93
2023-10-10T20:45:54.089Z,7.70
2023-10-10T20:47:25.906Z,7.53
2023-10-10T20:48:57.676Z,7.70
2023-10-10T20:50:29.626Z,8.77
2023-10-10T20:52:02.499Z,6.83
2023-10-10T20:53:34.291Z,6.67
2023-10-10T20:55:11.842Z,7.33
2023-10-10T20:56:44.381Z,10.87
2023-10-10T20:58:16.227Z,6.40
2023-10-10T20:59:48.024Z,7.83
2023-10-10T21:01:20.162Z,10.53
2023-10-10T21:02:54.482Z,7.90
2023-10-10T21:04:26.339Z,9.63
2023-10-10T21:05:58.575Z,7.60
2023-10-10T21:07:31.341Z,7.77
2023-10-10T21:09:03.648Z,7.67
2023-10-10T21:10:41.157Z,11.23
2023-10-10T21:12:13.404Z,10.10
2023-10-10T21:13:47.765Z,7.90
2023-10-10T21:15:21.582Z,12.73